Time;durP1;ratioP1;P1;durP2;ratioP2;P2;SDS_P1;SDS_P2;PMS_P1;PMS_P2;Temp;Humidity;BMP_temperature;BMP_pressure;BME280_temperature;BME280_humidity;BME280_pressure;Samples;Min_cycle;Max_cycle;Signal;HPM_P1;HPM_P2
2022/05/04 00:02:45;;;;;;;7.53;5.68;;;;;;;;;;6285259;28;20055;-80
2022/05/04 00:05:48;;;;;;;9.20;6.18;;;;;;;;;;6293627;28;20142;-82
2022/05/04 00:08:50;;;;;;;;;;;;;;;;;;6312993;28;20135;-81
2022/05/04 00:11:51;;;;;;;9.27;5.88;;;;;;;;;;6286870;28;19978;-81
2022/05/04 00:14:53;;;;;;;9.07;5.40;;;;;;;;;;6288223;28;20183;-81
2022/05/04 00:17:55;;;;;;;8.23;5.38;;;;;;;;;;6302740;28;20059;-81
2022/05/04 00:20:57;;;;;;;8.43;5.60;;;;;;;;;;6312439;28;20044;-82
2022/05/04 00:23:59;;;;;;;9.07;6.07;;;;;;;;;;6286372;28;20885;-82
2022/05/04 00:27:01;;;;;;;8.63;6.30;;;;;;;;;;6284611;28;20053;-81
2022/05/04 00:30:04;;;;;;;8.73;6.50;;;;;;;;;;6285616;28;20048;-81
2022/05/04 00:33:06;;;;;;;9.50;5.97;;;;;;;;;;6275897;28;20129;-80
2022/05/04 00:36:08;;;;;;;8.50;6.30;;;;;;;;;;6262309;28;20162;-81
2022/05/04 00:39:09;;;;;;;8.10;5.90;;;;;;;;;;6271013;28;20044;-81
2022/05/04 00:42:13;;;;;;;8.07;5.80;;;;;;;;;;6323994;28;20158;-80
2022/05/04 00:45:15;;;;;;;7.40;5.70;;;;;;;;;;6314014;28;20141;-81
2022/05/04 00:48:17;;;;;;;7.93;6.82;;;;;;;;;;6293969;28;20045;-82
2022/05/04 00:51:19;;;;;;;9.57;5.82;;;;;;;;;;6302355;28;20048;-82
2022/05/04 00:54:21;;;;;;;9.93;5.70;;;;;;;;;;6285725;28;20142;-80
2022/05/04 01:00:45;;;;;;;10.82;5.80;;;;;;;;;;6286055;28;20206;-81
2022/05/04 01:03:47;;;;;;;7.88;5.63;;;;;;;;;;6290634;28;20082;-80
2022/05/04 01:06:49;;;;;;;9.88;5.70;;;;;;;;;;6306741;28;20117;-82
2022/05/04 01:09:49;;;;;;;10.23;6.45;;;;;;;;;;6287296;28;22408;-81
2022/05/04 01:12:53;;;;;;;11.07;6.03;;;;;;;;;;6287034;28;20421;-82
2022/05/04 01:15:55;;;;;;;8.95;6.82;;;;;;;;;;6288194;28;20135;-80
2022/05/04 01:18:56;;;;;;;8.55;6.38;;;;;;;;;;6284642;28;20103;-81
2022/05/04 01:21:58;;;;;;;9.90;6.40;;;;;;;;;;6284660;28;20227;-81
2022/05/04 01:25:00;;;;;;;10.88;6.40;;;;;;;;;;6298270;28;20085;-81
2022/05/04 01:28:02;;;;;;;10.60;6.75;;;;;;;;;;6297748;28;20044;-80
2022/05/04 01:31:03;;;;;;;9.23;6.13;;;;;;;;;;6286859;28;20683;-81
2022/05/04 01:34:05;;;;;;;8.35;6.05;;;;;;;;;;6287713;28;20144;-81
2022/05/04 01:37:07;;;;;;;9.15;6.07;;;;;;;;;;6282333;28;20621;-82
2022/05/04 01:40:09;;;;;;;9.73;5.97;;;;;;;;;;6278227;28;20136;-80
2022/05/04 01:43:10;;;;;;;9.82;6.10;;;;;;;;;;6281913;28;20136;-82
2022/05/04 01:46:12;;;;;;;10.55;5.85;;;;;;;;;;6283062;28;20140;-81
2022/05/04 01:49:14;;;;;;;8.65;5.97;;;;;;;;;;6286239;28;20204;-82
2022/05/04 01:52:15;;;;;;;9.55;5.82;;;;;;;;;;6291182;28;20098;-81
2022/05/04 01:55:17;;;;;;;8.23;5.65;;;;;;;;;;6290382;28;20578;-82
2022/05/04 01:58:19;;;;;;;8.75;6.22;;;;;;;;;;6297307;28;20075;-81
2022/05/04 02:01:20;;;;;;;9.20;6.03;;;;;;;;;;6303384;28;20059;-81
2022/05/04 02:04:22;;;;;;;8.98;5.68;;;;;;;;;;6336658;28;20047;-81
2022/05/04 02:07:24;;;;;;;7.93;5.68;;;;;;;;;;6299636;28;20044;-82
2022/05/04 02:10:25;;;;;;;10.40;5.85;;;;;;;;;;6286500;28;20099;-81
2022/05/04 02:13:27;;;;;;;10.32;5.90;;;;;;;;;;6298885;28;20610;-82
2022/05/04 02:16:29;;;;;;;9.80;6.35;;;;;;;;;;6312388;28;21040;-81
2022/05/04 02:19:31;;;;;;;11.13;6.85;;;;;;;;;;6293549;28;20109;-81
2022/05/04 02:22:33;;;;;;;8.57;6.22;;;;;;;;;;6316867;28;20514;-82
2022/05/04 02:25:34;;;;;;;9.70;6.30;;;;;;;;;;6317998;28;20063;-81
2022/05/04 02:28:36;;;;;;;8.43;6.22;;;;;;;;;;6292857;28;20040;-82
2022/05/04 02:31:38;;;;;;;11.93;6.82;;;;;;;;;;6291663;28;20121;-81
2022/05/04 02:38:00;;;;;;;12.63;6.53;;;;;;;;;;6303470;28;20048;-82
2022/05/04 02:41:02;;;;;;;9.75;6.50;;;;;;;;;;6293546;28;20052;-81
2022/05/04 02:44:04;;;;;;;17.42;9.38;;;;;;;;;;6293802;28;20052;-81
2022/05/04 02:47:06;;;;;;;16.40;9.55;;;;;;;;;;6286246;28;20572;-82
2022/05/04 02:50:08;;;;;;;17.13;9.32;;;;;;;;;;6298657;28;20052;-81
2022/05/04 02:53:09;;;;;;;13.73;7.63;;;;;;;;;;6308688;28;20496;-81
2022/05/04 02:56:13;;;;;;;11.07;6.45;;;;;;;;;;6312969;28;20514;-82
2022/05/04 02:59:15;;;;;;;9.40;6.75;;;;;;;;;;6296922;28;20044;-82
2022/05/04 03:02:28;;;;;;;10.05;6.80;;;;;;;;;;6295410;28;20072;-81
2022/05/04 03:05:30;;;;;;;;;;;;;;;;;;6300040;28;20047;-82
2022/05/04 03:08:31;;;;;;;12.48;8.10;;;;;;;;;;6298214;28;19920;-82
2022/05/04 03:14:53;;;;;;;13.75;7.80;;;;;;;;;;6299049;28;20090;-81
2022/05/04 03:17:55;;;;;;;11.23;6.70;;;;;;;;;;6309783;28;20117;-81
2022/05/04 03:20:57;;;;;;;9.25;6.28;;;;;;;;;;6322730;28;20428;-80
2022/05/04 03:23:58;;;;;;;11.77;7.13;;;;;;;;;;6319965;28;20134;-80
2022/05/04 03:27:01;;;;;;;9.25;6.63;;;;;;;;;;6330852;28;20052;-80
2022/05/04 03:30:04;;;;;;;11.73;6.60;;;;;;;;;;6318412;28;20127;-80
2022/05/04 03:33:05;;;;;;;12.70;7.72;;;;;;;;;;6297812;28;20044;-80
2022/05/04 03:36:07;;;;;;;13.55;7.90;;;;;;;;;;6298808;28;20060;-80
2022/05/04 03:39:09;;;;;;;12.63;7.88;;;;;;;;;;6298474;28;20062;-81
2022/05/04 03:42:12;;;;;;;12.80;7.80;;;;;;;;;;6298649;28;20134;-80
2022/05/04 03:45:13;;;;;;;15.05;7.55;;;;;;;;;;6300353;28;20082;-81
2022/05/04 03:48:15;;;;;;;12.68;7.93;;;;;;;;;;6316830;28;20100;-80
2022/05/04 03:51:20;;;;;;;10.95;7.30;;;;;;;;;;6321663;28;20728;-80
2022/05/04 03:54:22;;;;;;;13.98;8.52;;;;;;;;;;6299689;28;20098;-80
2022/05/04 03:57:23;;;;;;;14.00;8.88;;;;;;;;;;6299063;28;20106;-81
2022/05/04 04:00:25;;;;;;;14.57;8.45;;;;;;;;;;6327188;28;20044;-81
2022/05/04 04:03:27;;;;;;;13.75;8.02;;;;;;;;;;6312192;28;20098;-81
2022/05/04 04:06:28;;;;;;;11.20;7.75;;;;;;;;;;6296742;28;20126;-81
2022/05/04 04:09:30;;;;;;;10.68;7.68;;;;;;;;;;6304788;28;20085;-84
2022/05/04 04:12:32;;;;;;;11.75;7.63;;;;;;;;;;6324524;28;20417;-84
2022/05/04 04:15:33;;;;;;;12.48;8.30;;;;;;;;;;6323775;28;20109;-80
2022/05/04 04:18:35;;;;;;;11.40;8.15;;;;;;;;;;6302564;28;20127;-81
2022/05/04 04:21:52;;;;;;;14.13;8.07;;;;;;;;;;6295562;28;20053;-81
2022/05/04 04:24:55;;;;;;;15.95;8.50;;;;;;;;;;6298856;28;20048;-80
2022/05/04 04:27:57;;;;;;;14.35;8.02;;;;;;;;;;6321480;28;20164;-81
2022/05/04 04:30:59;;;;;;;10.65;7.10;;;;;;;;;;6321771;28;20064;-80
2022/05/04 04:34:02;;;;;;;8.70;6.97;;;;;;;;;;6295812;28;20048;-81
2022/05/04 04:37:04;;;;;;;10.48;6.88;;;;;;;;;;6296077;28;20050;-80
2022/05/04 04:40:07;;;;;;;11.93;8.23;;;;;;;;;;6296892;28;20114;-80
2022/05/04 04:43:08;;;;;;;13.80;7.88;;;;;;;;;;6295072;28;20079;-80
2022/05/04 04:46:10;;;;;;;13.30;7.45;;;;;;;;;;6297545;28;20260;-80
2022/05/04 04:49:12;;;;;;;15.35;8.10;;;;;;;;;;6323421;28;20038;-80
2022/05/04 04:52:13;;;;;;;9.80;7.22;;;;;;;;;;6310697;28;20079;-81
2022/05/04 04:55:15;;;;;;;12.65;8.23;;;;;;;;;;6307688;28;20846;-81
2022/05/04 04:58:17;;;;;;;12.15;7.13;;;;;;;;;;6321398;28;20059;-81
2022/05/04 05:01:19;;;;;;;12.75;7.90;;;;;;;;;;6343694;28;20056;-80
2022/05/04 05:04:21;;;;;;;13.65;7.88;;;;;;;;;;6324047;28;20093;-80
2022/05/04 05:07:23;;;;;;;13.82;7.85;;;;;;;;;;6319602;28;20065;-81
2022/05/04 05:10:25;;;;;;;16.85;12.70;;;;;;;;;;6303719;28;20051;-80
2022/05/04 05:13:26;;;;;;;17.60;10.20;;;;;;;;;;6322970;28;20067;-81
2022/05/04 05:16:28;;;;;;;12.10;8.48;;;;;;;;;;6318323;28;20109;-80
2022/05/04 05:19:30;;;;;;;12.05;9.13;;;;;;;;;;6297350;28;20044;-80
2022/05/04 05:22:31;;;;;;;13.20;8.40;;;;;;;;;;6297431;28;20048;-80
2022/05/04 05:25:33;;;;;;;14.18;8.05;;;;;;;;;;6296254;28;20161;-80
2022/05/04 05:28:34;;;;;;;15.57;8.10;;;;;;;;;;6297560;28;20082;-80
2022/05/04 05:31:36;;;;;;;16.33;8.38;;;;;;;;;;6295305;28;20127;-80
2022/05/04 05:34:38;;;;;;;16.58;8.93;;;;;;;;;;6297512;28;20048;-81
2022/05/04 05:37:39;;;;;;;13.88;8.80;;;;;;;;;;6295883;28;20098;-80
2022/05/04 05:40:42;;;;;;;17.80;9.25;;;;;;;;;;6294709;28;20096;-81
2022/05/04 05:43:43;;;;;;;14.40;9.25;;;;;;;;;;6322085;28;20047;-81
2022/05/04 05:46:45;;;;;;;18.65;10.30;;;;;;;;;;6314023;28;20071;-80
2022/05/04 05:49:46;;;;;;;17.33;9.90;;;;;;;;;;6319884;28;20118;-80
2022/05/04 05:52:49;;;;;;;16.52;9.98;;;;;;;;;;6305123;28;20052;-81
2022/05/04 05:55:50;;;;;;;18.10;10.80;;;;;;;;;;6306501;28;20439;-81
2022/05/04 05:58:52;;;;;;;18.42;10.43;;;;;;;;;;6321904;28;20141;-81
2022/05/04 06:01:53;;;;;;;15.63;9.02;;;;;;;;;;6318366;28;20130;-81
2022/05/04 06:04:56;;;;;;;13.80;8.70;;;;;;;;;;6321380;28;20048;-82
2022/05/04 06:07:57;;;;;;;15.88;9.07;;;;;;;;;;6316720;28;20087;-80
2022/05/04 06:11:04;;;;;;;16.58;9.63;;;;;;;;;;6289009;28;20049;-80
2022/05/04 06:14:06;;;;;;;21.40;10.02;;;;;;;;;;6294779;28;20558;-80
2022/05/04 06:17:08;;;;;;;18.50;9.93;;;;;;;;;;6309408;28;20483;-80
2022/05/04 06:20:10;;;;;;;15.80;9.48;;;;;;;;;;6343895;28;20043;-81
2022/05/04 06:23:11;;;;;;;18.25;9.80;;;;;;;;;;6342646;28;20040;-79
2022/05/04 06:26:14;;;;;;;16.15;9.68;;;;;;;;;;6332090;28;20121;-81
2022/05/04 06:29:15;;;;;;;15.40;9.35;;;;;;;;;;6301209;28;20040;-80
2022/05/04 06:35:41;;;;;;;16.23;9.40;;;;;;;;;;6344011;28;20715;-80
2022/05/04 06:38:45;;;;;;;17.80;10.68;;;;;;;;;;6343534;28;20040;-81
2022/05/04 06:41:49;;;;;;;16.23;10.13;;;;;;;;;;6341286;28;20059;-81
2022/05/04 06:44:50;;;;;;;19.55;10.40;;;;;;;;;;6325495;28;20120;-81
2022/05/04 06:47:52;;;;;;;21.25;10.77;;;;;;;;;;6323841;28;20098;-81
2022/05/04 06:50:53;;;;;;;19.58;10.30;;;;;;;;;;6299743;28;20127;-81
2022/05/04 06:53:55;;;;;;;17.60;10.07;;;;;;;;;;6259943;28;20060;-81
2022/05/04 06:57:17;;;;;;;18.10;10.48;;;;;;;;;;6323870;28;20173;-81
2022/05/04 07:00:19;;;;;;;21.25;10.82;;;;;;;;;;6344055;28;20055;-80
2022/05/04 07:03:23;;;;;;;26.58;11.27;;;;;;;;;;6307032;28;20113;-81
2022/05/04 07:06:25;;;;;;;21.17;11.82;;;;;;;;;;6318398;28;20044;-80
2022/05/04 07:09:27;;;;;;;20.83;11.25;;;;;;;;;;6319457;28;20320;-81
2022/05/04 07:12:29;;;;;;;25.08;12.27;;;;;;;;;;6300258;28;20068;-81
2022/05/04 07:15:30;;;;;;;19.95;11.70;;;;;;;;;;6319125;28;20109;-80
2022/05/04 07:18:32;;;;;;;20.42;10.82;;;;;;;;;;6339240;28;20519;-81
2022/05/04 07:21:33;;;;;;;20.08;12.05;;;;;;;;;;6324081;28;20526;-81
2022/05/04 07:24:35;;;;;;;19.33;12.07;;;;;;;;;;6342608;28;20121;-80
2022/05/04 07:27:37;;;;;;;19.50;11.65;;;;;;;;;;6319152;28;20059;-81
2022/05/04 07:30:38;;;;;;;23.27;12.63;;;;;;;;;;6317486;28;20067;-80
2022/05/04 07:33:40;;;;;;;20.75;11.27;;;;;;;;;;6319586;28;20093;-81
2022/05/04 07:36:42;;;;;;;19.27;11.30;;;;;;;;;;6322968;28;20463;-80
2022/05/04 07:43:03;;;;;;;19.38;11.20;;;;;;;;;;6297734;28;20052;-81
2022/05/04 07:46:06;;;;;;;20.00;11.77;;;;;;;;;;6286283;28;20113;-81
2022/05/04 07:49:08;;;;;;;20.05;11.20;;;;;;;;;;6321869;28;20040;-81
2022/05/04 07:52:09;;;;;;;17.13;10.43;;;;;;;;;;6320810;28;20047;-81
2022/05/04 07:55:11;;;;;;;17.38;10.45;;;;;;;;;;6321290;28;20385;-81
2022/05/04 07:58:13;;;;;;;18.13;10.90;;;;;;;;;;6338989;28;20086;-81
2022/05/04 08:04:35;;;;;;;21.05;11.65;;;;;;;;;;6296307;28;20044;-80
2022/05/04 08:07:36;;;;;;;19.00;11.38;;;;;;;;;;6295683;28;20112;-81
2022/05/04 08:10:38;;;;;;;21.63;11.82;;;;;;;;;;6309012;28;20103;-81
2022/05/04 08:13:39;;;;;;;88.32;47.13;;;;;;;;;;6295828;28;20117;-81
2022/05/04 08:16:41;;;;;;;37.53;22.42;;;;;;;;;;6298344;28;20068;-80
2022/05/04 08:19:49;;;;;;;31.75;19.15;;;;;;;;;;6296517;28;20040;-80
2022/05/04 08:22:51;;;;;;;31.63;20.00;;;;;;;;;;6311661;28;20088;-80
2022/05/04 08:25:54;;;;;;;22.90;14.10;;;;;;;;;;6312446;28;20490;-81
2022/05/04 08:28:56;;;;;;;21.17;13.20;;;;;;;;;;6311085;28;20053;-86
2022/05/04 08:31:59;;;;;;;18.45;12.18;;;;;;;;;;6311304;28;20032;-80
2022/05/04 08:35:00;;;;;;;21.67;10.77;;;;;;;;;;6325806;28;20060;-80
2022/05/04 08:38:02;;;;;;;20.13;11.75;;;;;;;;;;6314473;28;20337;-80
2022/05/04 08:41:04;;;;;;;16.40;10.52;;;;;;;;;;6306889;28;20087;-79
2022/05/04 08:44:08;;;;;;;20.88;11.48;;;;;;;;;;6308523;28;20048;-80
2022/05/04 08:47:12;;;;;;;21.13;11.68;;;;;;;;;;6306184;28;20106;-80
2022/05/04 08:50:17;;;;;;;106.03;59.92;;;;;;;;;;6308852;28;20048;-81
2022/05/04 08:53:20;;;;;;;42.17;22.55;;;;;;;;;;6313080;28;20053;-82
2022/05/04 08:56:22;;;;;;;24.33;12.63;;;;;;;;;;6311816;28;20044;-83
2022/05/04 08:59:23;;;;;;;21.95;12.15;;;;;;;;;;6315905;28;20042;-86
2022/05/04 09:02:25;;;;;;;22.05;13.10;;;;;;;;;;6318223;28;20632;-82
2022/05/04 09:05:29;;;;;;;40.80;16.03;;;;;;;;;;6333637;28;20044;-81
2022/05/04 09:08:30;;;;;;;;;;;;;;;;;;6337517;28;20052;-81
2022/05/04 09:11:36;;;;;;;16.15;10.07;;;;;;;;;;6331585;28;19944;-86
2022/05/04 09:14:38;;;;;;;16.95;9.05;;;;;;;;;;6313914;28;20040;-82
2022/05/04 09:17:39;;;;;;;24.05;9.75;;;;;;;;;;6326784;28;20063;-81
2022/05/04 09:20:49;;;;;;;14.20;9.20;;;;;;;;;;6310386;28;20048;-81
2022/05/04 09:23:54;;;;;;;15.10;10.02;;;;;;;;;;6310852;28;20033;-80
2022/05/04 09:26:57;;;;;;;16.88;9.50;;;;;;;;;;6310468;28;20142;-80
2022/05/04 09:29:59;;;;;;;15.85;8.65;;;;;;;;;;6302443;28;20112;-82
2022/05/04 09:33:02;;;;;;;16.52;9.80;;;;;;;;;;6298815;28;20053;-82
2022/05/04 09:36:05;;;;;;;13.75;8.73;;;;;;;;;;6300535;28;20135;-81
2022/05/04 09:45:55;;;;;;;20.52;10.68;;;;;;;;;;6303633;28;20036;-83
2022/05/04 09:48:57;;;;;;;13.70;9.20;;;;;;;;;;6317922;28;20048;-81
2022/05/04 09:52:04;;;;;;;15.73;9.20;;;;;;;;;;6308033;28;20052;-81
2022/05/04 09:55:25;;;;;;;15.52;9.55;;;;;;;;;;6295764;28;20040;-82
2022/05/04 09:58:28;;;;;;;14.20;9.25;;;;;;;;;;6286517;28;21663;-82
2022/05/04 10:01:29;;;;;;;20.73;10.98;;;;;;;;;;6267029;28;20064;-80
2022/05/04 10:04:35;;;;;;;15.77;10.77;;;;;;;;;;6301639;28;20036;-81
2022/05/04 10:07:43;;;;;;;18.80;10.70;;;;;;;;;;6298333;28;20044;-83
2022/05/04 10:10:47;;;;;;;18.83;10.60;;;;;;;;;;6294671;28;20048;-83
2022/05/04 10:13:53;;;;;;;19.08;10.45;;;;;;;;;;6301772;28;20066;-81
2022/05/04 10:16:57;;;;;;;20.38;11.20;;;;;;;;;;6307187;28;20097;-80
2022/05/04 10:20:09;;;;;;;29.17;11.60;;;;;;;;;;6324363;28;20044;-81
2022/05/04 10:23:27;;;;;;;21.67;11.05;;;;;;;;;;6326923;28;20052;-81
2022/05/04 10:26:37;;;;;;;20.10;10.15;;;;;;;;;;6310473;28;20041;-80
2022/05/04 10:33:08;;;;;;;17.63;9.48;;;;;;;;;;6300352;28;20078;-82
2022/05/04 10:36:26;;;;;;;17.58;10.13;;;;;;;;;;6301856;28;20093;-82
2022/05/04 10:39:28;;;;;;;16.38;9.75;;;;;;;;;;6300289;28;20045;-81
2022/05/04 10:42:52;;;;;;;16.85;8.75;;;;;;;;;;6351090;28;20032;-81
2022/05/04 10:45:53;;;;;;;12.02;8.55;;;;;;;;;;6342046;28;20109;-80
2022/05/04 10:49:03;;;;;;;11.23;8.00;;;;;;;;;;6333939;28;20186;-82
2022/05/04 10:52:05;;;;;;;14.55;8.60;;;;;;;;;;6292653;28;20053;-81
2022/05/04 10:55:06;;;;;;;13.65;8.55;;;;;;;;;;6294853;28;20049;-81
2022/05/04 10:58:44;;;;;;;12.98;8.23;;;;;;;;;;6293401;28;20414;-82
2022/05/04 11:01:45;;;;;;;11.60;8.18;;;;;;;;;;6293821;28;20086;-81
2022/05/04 11:04:54;;;;;;;11.57;8.07;;;;;;;;;;6295503;28;20044;-82
2022/05/04 11:07:57;;;;;;;11.23;8.02;;;;;;;;;;6296133;28;20056;-82
2022/05/04 11:10:58;;;;;;;16.27;7.88;;;;;;;;;;6298112;28;20726;-86
2022/05/04 11:14:00;;;;;;;12.35;7.85;;;;;;;;;;6276766;28;20403;-83
2022/05/04 11:17:09;;;;;;;12.83;7.93;;;;;;;;;;6282167;28;20055;-82
2022/05/04 11:20:14;;;;;;;11.13;7.60;;;;;;;;;;6295206;28;20446;-82
2022/05/04 11:23:23;;;;;;;10.52;7.50;;;;;;;;;;6298425;28;20033;-83
2022/05/04 11:26:47;;;;;;;9.95;7.18;;;;;;;;;;6297759;28;20060;-83
2022/05/04 11:29:48;;;;;;;8.80;6.80;;;;;;;;;;6297679;28;20044;-82
2022/05/04 11:32:51;;;;;;;8.98;7.00;;;;;;;;;;6310212;28;20492;-82
2022/05/04 11:35:57;;;;;;;7.93;6.22;;;;;;;;;;6324031;28;20056;-82
2022/05/04 11:39:00;;;;;;;8.93;6.78;;;;;;;;;;6323932;28;20048;-83
2022/05/04 11:42:04;;;;;;;8.57;6.63;;;;;;;;;;6295478;28;20056;-82
2022/05/04 11:45:06;;;;;;;8.63;6.75;;;;;;;;;;6298610;28;20048;-83
2022/05/04 11:48:08;;;;;;;8.05;6.53;;;;;;;;;;6296663;28;20748;-82
2022/05/04 11:51:11;;;;;;;9.00;7.13;;;;;;;;;;6293740;28;20673;-83
2022/05/04 11:54:12;;;;;;;8.13;6.88;;;;;;;;;;6297196;28;20051;-83
2022/05/04 11:57:14;;;;;;;8.32;6.63;;;;;;;;;;6321475;28;20040;-83
2022/05/04 12:00:18;;;;;;;8.93;6.32;;;;;;;;;;6321916;28;20040;-83
2022/05/04 12:03:21;;;;;;;8.23;6.43;;;;;;;;;;6320234;28;20044;-82
2022/05/04 12:06:23;;;;;;;8.20;6.13;;;;;;;;;;6323669;28;20069;-82
2022/05/04 12:09:25;;;;;;;10.90;6.95;;;;;;;;;;6323178;28;20093;-83
2022/05/04 12:12:29;;;;;;;8.52;6.95;;;;;;;;;;6320713;28;20074;-84
2022/05/04 12:15:31;;;;;;;7.30;6.10;;;;;;;;;;6324195;28;20044;-83
2022/05/04 12:18:35;;;;;;;9.90;7.10;;;;;;;;;;6321866;28;20047;-83
2022/05/04 12:21:38;;;;;;;7.38;6.63;;;;;;;;;;6321382;28;20055;-84
2022/05/04 12:24:43;;;;;;;7.95;6.25;;;;;;;;;;6322940;28;20051;-83
2022/05/04 12:27:44;;;;;;;9.18;7.20;;;;;;;;;;6304272;28;20037;-82
2022/05/04 12:34:13;;;;;;;9.57;7.25;;;;;;;;;;6332658;28;20114;-84
2022/05/04 12:37:15;;;;;;;9.65;7.25;;;;;;;;;;6347038;28;20105;-84
2022/05/04 12:40:17;;;;;;;;;;;;;;;;;;6331251;28;20059;-85
2022/05/04 12:43:20;;;;;;;7.18;6.45;;;;;;;;;;6322297;28;19943;-82
2022/05/04 12:46:22;;;;;;;8.63;7.18;;;;;;;;;;6301551;28;20048;-83
2022/05/04 12:49:25;;;;;;;9.68;6.35;;;;;;;;;;6305249;28;20041;-84
2022/05/04 12:52:26;;;;;;;8.88;6.53;;;;;;;;;;6301100;28;20155;-84
2022/05/04 12:58:49;;;;;;;8.65;6.78;;;;;;;;;;6278166;28;20045;-84
2022/05/04 13:01:51;;;;;;;9.80;7.90;;;;;;;;;;6286698;28;20044;-83
2022/05/04 13:04:53;;;;;;;11.15;7.97;;;;;;;;;;6329081;28;20044;-84
2022/05/04 13:07:55;;;;;;;9.00;7.22;;;;;;;;;;6310503;28;20597;-83
2022/05/04 13:10:57;;;;;;;8.87;7.93;;;;;;;;;;6323154;28;20070;-85
2022/05/04 13:13:59;;;;;;;9.10;6.82;;;;;;;;;;6323522;28;20048;-83
2022/05/04 13:17:05;;;;;;;7.85;6.85;;;;;;;;;;6324005;28;20051;-85
2022/05/04 13:20:09;;;;;;;11.60;8.48;;;;;;;;;;6272713;28;20528;-82
2022/05/04 13:23:11;;;;;;;8.18;6.32;;;;;;;;;;6318798;28;20523;-79
2022/05/04 13:26:14;;;;;;;10.18;7.40;;;;;;;;;;6295414;28;20121;-77
2022/05/04 13:29:15;;;;;;;8.23;6.63;;;;;;;;;;6312218;28;20155;-78
2022/05/04 13:32:17;;;;;;;7.75;6.93;;;;;;;;;;6313274;28;20109;-78
2022/05/04 13:35:20;;;;;;;11.53;6.37;;;;;;;;;;6313382;28;20063;-78
2022/05/04 13:38:22;;;;;;;8.38;6.93;;;;;;;;;;6295398;28;20538;-79
2022/05/04 13:41:25;;;;;;;8.50;6.47;;;;;;;;;;6310642;28;20134;-79
2022/05/04 13:44:27;;;;;;;6.72;6.03;;;;;;;;;;6312473;28;20123;-80
2022/05/04 13:47:28;;;;;;;8.13;6.85;;;;;;;;;;6303667;28;20108;-78
2022/05/04 13:53:51;;;;;;;9.80;7.13;;;;;;;;;;6310113;28;20058;-79
2022/05/04 13:56:53;;;;;;;8.70;7.05;;;;;;;;;;6292999;28;20051;-78
2022/05/04 13:59:55;;;;;;;11.03;8.03;;;;;;;;;;6311653;28;20112;-79
2022/05/04 14:02:56;;;;;;;10.50;7.68;;;;;;;;;;6311403;28;20193;-79
2022/05/04 14:05:58;;;;;;;8.98;6.72;;;;;;;;;;6285087;28;20040;-78
2022/05/04 14:09:00;;;;;;;10.05;6.90;;;;;;;;;;6286570;28;20080;-78
2022/05/04 14:12:03;;;;;;;10.73;7.35;;;;;;;;;;6286617;28;20444;-79
2022/05/04 14:15:09;;;;;;;10.05;7.40;;;;;;;;;;6286458;28;20127;-80
2022/05/04 14:18:11;;;;;;;9.48;7.88;;;;;;;;;;6288111;28;20042;-78
2022/05/04 14:21:14;;;;;;;11.10;8.90;;;;;;;;;;6286385;28;20045;-79
2022/05/04 14:24:18;;;;;;;12.05;9.18;;;;;;;;;;6286594;28;20519;-78
2022/05/04 14:27:20;;;;;;;10.27;8.45;;;;;;;;;;6281106;28;20045;-80
2022/05/04 14:30:23;;;;;;;11.00;7.68;;;;;;;;;;6286512;28;20040;-79
2022/05/04 14:33:25;;;;;;;10.35;8.00;;;;;;;;;;6288798;28;20052;-80
2022/05/04 14:36:28;;;;;;;8.77;7.88;;;;;;;;;;6285155;28;20047;-79
2022/05/04 14:39:30;;;;;;;10.38;8.75;;;;;;;;;;6286905;28;20448;-82
2022/05/04 14:42:32;;;;;;;12.13;9.70;;;;;;;;;;6305485;28;20040;-83
2022/05/04 14:45:33;;;;;;;12.37;10.37;;;;;;;;;;6297814;28;20079;-82
2022/05/04 14:48:35;;;;;;;13.52;11.15;;;;;;;;;;6296566;28;20075;-82
2022/05/04 14:51:37;;;;;;;15.60;10.20;;;;;;;;;;6274533;28;20083;-83
2022/05/04 14:54:38;;;;;;;10.30;9.18;;;;;;;;;;6289764;28;20417;-82
2022/05/04 14:57:40;;;;;;;10.32;8.02;;;;;;;;;;6307356;28;20055;-83
2022/05/04 15:00:42;;;;;;;11.38;8.85;;;;;;;;;;6288127;28;20062;-82
2022/05/04 15:07:06;;;;;;;9.73;7.38;;;;;;;;;;6297682;28;20045;-82
2022/05/04 15:10:08;;;;;;;12.55;9.93;;;;;;;;;;6315476;28;20090;-82
2022/05/04 15:13:10;;;;;;;12.25;9.65;;;;;;;;;;6310931;28;20050;-82
2022/05/04 15:16:12;;;;;;;12.30;10.05;;;;;;;;;;6295334;28;20574;-83
2022/05/04 15:19:14;;;;;;;10.97;8.77;;;;;;;;;;6303448;28;20082;-83
2022/05/04 15:22:15;;;;;;;12.85;9.05;;;;;;;;;;6304261;28;20591;-82
2022/05/04 15:25:17;;;;;;;12.82;9.55;;;;;;;;;;6294521;28;20558;-82
2022/05/04 15:28:19;;;;;;;12.15;9.48;;;;;;;;;;6289148;28;20118;-83
2022/05/04 15:31:20;;;;;;;11.30;8.77;;;;;;;;;;6317537;28;20097;-82
2022/05/04 15:34:22;;;;;;;11.07;8.02;;;;;;;;;;6299117;28;20111;-82
2022/05/04 15:37:24;;;;;;;13.10;9.68;;;;;;;;;;6318528;28;20653;-83
2022/05/04 15:40:25;;;;;;;11.93;8.27;;;;;;;;;;6294744;28;20047;-83
2022/05/04 15:43:27;;;;;;;9.98;7.93;;;;;;;;;;6321116;28;20071;-83
2022/05/04 15:46:30;;;;;;;9.68;8.27;;;;;;;;;;6311957;28;20045;-82
2022/05/04 15:49:33;;;;;;;13.38;8.65;;;;;;;;;;6278011;28;20041;-81
2022/05/04 15:52:35;;;;;;;10.35;8.25;;;;;;;;;;6295849;28;20517;-82
2022/05/04 15:55:36;;;;;;;11.60;8.48;;;;;;;;;;6314556;28;20082;-82
2022/05/04 15:58:38;;;;;;;11.07;8.85;;;;;;;;;;6296363;28;20079;-83
2022/05/04 16:01:40;;;;;;;11.77;8.90;;;;;;;;;;6297042;28;20044;-82
2022/05/04 16:04:42;;;;;;;9.05;7.90;;;;;;;;;;6295548;28;20048;-83
2022/05/04 16:07:44;;;;;;;11.23;8.52;;;;;;;;;;6296204;28;20048;-83
2022/05/04 16:10:46;;;;;;;11.05;8.55;;;;;;;;;;6296208;28;20041;-82
2022/05/04 16:13:48;;;;;;;9.27;7.78;;;;;;;;;;6284477;28;20056;-82
2022/05/04 16:23:31;;;;;;;10.90;7.45;;;;;;;;;;6321578;28;20097;-82
2022/05/04 16:26:32;;;;;;;13.02;8.60;;;;;;;;;;6296321;28;20456;-81
2022/05/04 16:29:34;;;;;;;11.45;9.07;;;;;;;;;;6296552;28;20044;-80
2022/05/04 16:32:36;;;;;;;11.57;8.50;;;;;;;;;;6306138;28;20055;-81
2022/05/04 16:35:38;;;;;;;14.23;8.40;;;;;;;;;;6298792;28;20047;-80
2022/05/04 16:38:40;;;;;;;14.27;9.23;;;;;;;;;;6295679;28;20126;-79
2022/05/04 16:41:42;;;;;;;10.00;8.13;;;;;;;;;;6294205;28;20048;-80
2022/05/04 16:44:44;;;;;;;10.98;8.65;;;;;;;;;;6294845;28;20044;-81
2022/05/04 16:47:45;;;;;;;9.82;7.90;;;;;;;;;;6292971;28;20070;-80
2022/05/04 16:50:47;;;;;;;12.05;8.13;;;;;;;;;;6294752;28;20048;-81
2022/05/04 16:53:49;;;;;;;10.25;8.32;;;;;;;;;;6290165;28;20060;-81
2022/05/04 16:56:51;;;;;;;14.20;9.87;;;;;;;;;;6291844;28;20115;-80
2022/05/04 16:59:53;;;;;;;14.77;9.60;;;;;;;;;;6293274;28;20571;-80
2022/05/04 17:02:55;;;;;;;12.53;10.13;;;;;;;;;;6306579;28;20044;-81
2022/05/04 17:05:57;;;;;;;13.25;10.00;;;;;;;;;;6294746;28;20052;-79
2022/05/04 17:09:00;;;;;;;12.82;10.15;;;;;;;;;;6294621;28;20209;-80
2022/05/04 17:12:02;;;;;;;16.83;9.88;;;;;;;;;;6287134;28;20091;-80
2022/05/04 17:15:06;;;;;;;14.23;11.02;;;;;;;;;;6287502;28;20055;-81
2022/05/04 17:18:08;;;;;;;13.27;10.88;;;;;;;;;;6287956;28;20052;-80
2022/05/04 17:21:10;;;;;;;12.82;10.25;;;;;;;;;;6287785;28;20130;-80
2022/05/04 17:24:11;;;;;;;16.05;10.65;;;;;;;;;;6287412;28;20059;-79
2022/05/04 17:27:13;;;;;;;12.70;10.38;;;;;;;;;;6288755;28;20080;-80
2022/05/04 17:30:15;;;;;;;12.30;9.93;;;;;;;;;;6288179;28;20064;-81
2022/05/04 17:36:51;;;;;;;13.88;9.95;;;;;;;;;;6234095;28;20068;-81
2022/05/04 17:39:53;;;;;;;11.27;9.03;;;;;;;;;;6289319;28;20044;-82
2022/05/04 17:42:54;;;;;;;14.90;10.18;;;;;;;;;;6313678;28;20127;-82
2022/05/04 17:45:56;;;;;;;12.13;9.98;;;;;;;;;;6289982;28;20751;-81
2022/05/04 17:48:58;;;;;;;12.98;10.02;;;;;;;;;;6280402;28;20805;-81
2022/05/04 17:52:00;;;;;;;12.55;9.88;;;;;;;;;;6272626;28;20084;-81
2022/05/04 17:55:02;;;;;;;12.00;9.70;;;;;;;;;;6286943;28;20102;-81
2022/05/04 17:58:04;;;;;;;13.25;10.63;;;;;;;;;;6305159;28;20051;-81
2022/05/04 18:01:05;;;;;;;12.85;9.73;;;;;;;;;;6311020;28;20486;-80
2022/05/04 18:04:08;;;;;;;10.93;9.82;;;;;;;;;;6300936;28;20045;-80
2022/05/04 18:07:09;;;;;;;10.98;9.23;;;;;;;;;;6289931;28;20912;-81
2022/05/04 18:10:11;;;;;;;14.48;10.13;;;;;;;;;;6292875;28;20047;-81
2022/05/04 18:13:13;;;;;;;12.60;10.13;;;;;;;;;;6304211;28;20094;-81
2022/05/04 18:16:16;;;;;;;11.45;9.57;;;;;;;;;;6283059;28;20043;-79
2022/05/04 18:19:18;;;;;;;12.57;9.23;;;;;;;;;;6262478;28;20043;-79
2022/05/04 18:22:20;;;;;;;11.45;9.30;;;;;;;;;;6283880;28;20078;-78
2022/05/04 18:25:21;;;;;;;11.27;8.88;;;;;;;;;;6285429;28;20067;-81
2022/05/04 18:28:23;;;;;;;10.95;9.32;;;;;;;;;;6284683;28;20419;-82
2022/05/04 18:31:25;;;;;;;12.13;9.07;;;;;;;;;;6289780;28;20513;-83
2022/05/04 18:34:26;;;;;;;12.15;9.05;;;;;;;;;;6300227;28;20712;-81
2022/05/04 18:37:28;;;;;;;11.20;9.25;;;;;;;;;;6286331;28;20127;-81
2022/05/04 18:40:30;;;;;;;12.18;9.50;;;;;;;;;;6283826;28;20086;-79
2022/05/04 18:43:32;;;;;;;10.63;9.23;;;;;;;;;;6284529;28;20044;-80
2022/05/04 18:46:35;;;;;;;12.95;10.05;;;;;;;;;;6288089;28;20051;-82
2022/05/04 18:49:36;;;;;;;;;;;;;;;;;;6312614;28;20040;-79
2022/05/04 18:52:39;;;;;;;14.07;9.02;;;;;;;;;;6295173;28;20008;-81
2022/05/04 18:55:41;;;;;;;;;;;;;;;;;;6283674;28;20048;-81
2022/05/04 18:58:43;;;;;;;11.57;8.23;;;;;;;;;;6286312;28;20081;-81